createdAt,value
2023-04-12T00:02:08.527Z,6.15
2023-04-12T00:04:36.281Z,5.43
2023-04-12T00:07:03.826Z,4.97
2023-04-12T00:09:32.448Z,6.03
2023-04-12T00:12:00.035Z,4.67
2023-04-12T00:14:27.391Z,5.83
2023-04-12T00:16:55.142Z,4.73
2023-04-12T00:19:25.834Z,6.90
2023-04-12T00:21:53.165Z,6.07
2023-04-12T00:24:20.535Z,8.00
2023-04-12T00:26:48.181Z,5.32
2023-04-12T00:29:16.170Z,6.43
2023-04-12T00:31:43.590Z,8.13
2023-04-12T00:34:11.416Z,6.17
2023-04-12T00:36:38.743Z,7.10
2023-04-12T00:39:06.303Z,7.60
2023-04-12T00:41:36.210Z,11.73
2023-04-12T00:44:04.756Z,5.97
2023-04-12T00:46:32.678Z,7.47
2023-04-12T00:49:00.601Z,7.87
2023-04-12T00:51:27.976Z,4.93
2023-04-12T00:53:58.128Z,6.60
2023-04-12T00:56:27.873Z,6.10
2023-04-12T00:58:56.741Z,7.05
2023-04-12T01:01:24.273Z,6.37
2023-04-12T01:03:52.449Z,5.87
2023-04-12T01:06:29.801Z,7.33
2023-04-12T01:09:20.649Z,5.97
2023-04-12T01:12:16.169Z,7.73
2023-04-12T01:14:46.901Z,6.62
2023-04-12T01:17:20.912Z,7.33
2023-04-12T01:19:54.082Z,8.77
2023-04-12T01:22:32.783Z,6.80
2023-04-12T01:25:24.009Z,6.93
2023-04-12T01:27:54.391Z,6.63
2023-04-12T01:30:22.134Z,7.03
2023-04-12T01:32:52.612Z,6.90
2023-04-12T01:35:21.438Z,6.43
2023-04-12T01:37:49.101Z,9.13
2023-04-12T01:40:18.157Z,7.43
2023-04-12T01:42:46.179Z,10.03
2023-04-12T01:45:14.188Z,8.60
2023-04-12T01:47:42.706Z,6.67
2023-04-12T01:50:22.723Z,5.37
2023-04-12T01:52:54.149Z,9.53
2023-04-12T01:55:22.142Z,7.20
2023-04-12T01:57:49.783Z,11.13
2023-04-12T02:00:17.735Z,7.10
2023-04-12T02:02:45.457Z,12.03
2023-04-12T02:05:12.910Z,7.43
2023-04-12T02:07:41.001Z,7.70
2023-04-12T02:10:14.017Z,7.10
2023-04-12T02:12:42.076Z,7.20
2023-04-12T02:15:09.700Z,7.87
2023-04-12T02:17:37.769Z,8.10
2023-04-12T02:20:09.650Z,7.53
2023-04-12T02:22:37.088Z,8.23
2023-04-12T02:25:06.446Z,6.93
2023-04-12T02:27:33.795Z,9.43
2023-04-12T02:30:02.064Z,9.37
2023-04-12T02:32:32.884Z,7.17
2023-04-12T02:35:02.877Z,7.47
2023-04-12T02:37:30.920Z,7.50
2023-04-12T02:39:59.053Z,8.27
2023-04-12T02:42:26.606Z,8.20
2023-04-12T02:44:54.231Z,8.37
2023-04-12T02:47:21.815Z,8.13
2023-04-12T02:49:49.417Z,8.97
2023-04-12T02:52:17.795Z,7.23
2023-04-12T02:54:46.226Z,8.43
2023-04-12T02:57:16.130Z,9.17
2023-04-12T02:59:44.027Z,9.37
2023-04-12T03:02:23.202Z,8.53
2023-04-12T03:04:51.558Z,9.77
2023-04-12T03:07:21.649Z,7.97
2023-04-12T03:09:49.793Z,7.00
2023-04-12T03:12:17.714Z,8.97
2023-04-12T03:14:46.209Z,8.13
2023-04-12T03:17:14.213Z,9.33
2023-04-12T03:19:42.302Z,9.53
2023-04-12T03:22:09.990Z,8.20
2023-04-12T03:24:37.695Z,7.67
2023-04-12T03:27:06.982Z,10.70
2023-04-12T03:29:34.609Z,6.27
2023-04-12T03:32:02.753Z,8.03
2023-04-12T03:34:32.480Z,10.17
2023-04-12T03:37:01.480Z,8.10
2023-04-12T03:39:32.613Z,10.87
2023-04-12T03:42:00.307Z,6.80
2023-04-12T03:44:28.069Z,9.27
2023-04-12T03:46:55.954Z,9.87
2023-04-12T03:49:24.332Z,10.00
2023-04-12T03:51:53.235Z,7.37
2023-04-12T03:54:20.713Z,9.13
2023-04-12T03:56:49.661Z,7.47
2023-04-12T03:59:17.868Z,8.27
2023-04-12T04:01:46.188Z,8.10
2023-04-12T04:04:14.311Z,12.73
2023-04-12T04:06:41.994Z,10.07
2023-04-12T04:09:09.664Z,10.03
2023-04-12T04:11:37.799Z,8.57
2023-04-12T04:14:05.465Z,9.90
2023-04-12T04:16:33.191Z,8.07
2023-04-12T04:19:01.071Z,6.77
2023-04-12T04:21:30.560Z,8.60
2023-04-12T04:24:02.360Z,8.57
2023-04-12T04:26:33.468Z,7.27
2023-04-12T04:29:04.987Z,9.57
2023-04-12T04:31:34.659Z,7.97
2023-04-12T04:34:05.262Z,7.60
2023-04-12T04:36:36.941Z,8.40
2023-04-12T04:39:05.248Z,6.80
2023-04-12T04:41:39.555Z,7.97
2023-04-12T04:44:10.600Z,11.53
2023-04-12T04:46:38.762Z,9.40
2023-04-12T04:49:06.341Z,10.37
2023-04-12T04:51:33.974Z,7.80
2023-04-12T04:54:02.296Z,9.03
2023-04-12T04:56:29.916Z,7.03
2023-04-12T04:58:57.574Z,6.90
2023-04-12T05:01:28.606Z,8.52
2023-04-12T05:03:57.097Z,9.83
2023-04-12T05:06:27.335Z,9.00
2023-04-12T05:08:55.188Z,12.00
2023-04-12T05:11:23.148Z,8.05
2023-04-12T05:13:51.127Z,7.50
2023-04-12T05:16:18.652Z,12.23
2023-04-12T05:18:46.132Z,7.20
2023-04-12T05:21:13.762Z,11.07
2023-04-12T05:23:46.291Z,7.07
2023-04-12T05:26:14.005Z,8.00
2023-04-12T05:28:42.060Z,10.13
2023-04-12T05:31:09.925Z,7.77
2023-04-12T05:33:38.350Z,7.23
2023-04-12T05:36:06.098Z,7.77
2023-04-12T05:38:33.553Z,7.63
2023-04-12T05:41:05.003Z,8.10
2023-04-12T05:43:33.517Z,9.13
2023-04-12T05:46:01.221Z,6.97
2023-04-12T05:48:28.871Z,7.63
2023-04-12T05:50:56.468Z,8.63
2023-04-12T05:53:24.128Z,10.45
2023-04-12T05:55:51.846Z,11.05
2023-04-12T05:58:19.335Z,6.28
2023-04-12T06:00:47.282Z,9.15
2023-04-12T06:03:15.142Z,7.60
2023-04-12T06:05:42.669Z,6.37
2023-04-12T06:08:10.347Z,6.60
2023-04-12T06:10:38.072Z,7.85
2023-04-12T06:13:05.587Z,9.90
2023-04-12T06:18:56.098Z,6.62
2023-04-12T06:21:39.454Z,6.22
2023-04-12T06:24:31.706Z,6.50
2023-04-12T06:26:59.858Z,6.68
2023-04-12T06:29:27.756Z,6.43
2023-04-12T06:31:55.416Z,8.85
2023-04-12T06:34:23.114Z,7.25
2023-04-12T06:36:51.157Z,7.55
2023-04-12T06:39:18.531Z,6.25
2023-04-12T06:41:50.823Z,7.78
2023-04-12T06:44:20.642Z,7.72
2023-04-12T06:46:48.312Z,6.68
2023-04-12T06:49:15.949Z,7.05
2023-04-12T06:51:46.443Z,8.55
2023-04-12T06:54:14.318Z,6.50
2023-04-12T06:56:41.783Z,8.07
2023-04-12T06:59:09.396Z,7.80
2023-04-12T07:01:37.020Z,6.93
2023-04-12T07:04:04.544Z,6.93
2023-04-12T07:06:32.846Z,7.28
2023-04-12T07:09:00.633Z,8.63
2023-04-12T07:11:28.686Z,8.35
2023-04-12T07:13:56.226Z,9.75
2023-04-12T07:16:23.983Z,6.05
2023-04-12T07:18:51.436Z,8.32
2023-04-12T07:21:18.829Z,7.75
2023-04-12T07:23:47.596Z,7.18
2023-04-12T07:26:14.998Z,7.93
2023-04-12T07:28:42.443Z,7.28
2023-04-12T07:31:10.098Z,7.22
2023-04-12T07:33:38.844Z,6.75
2023-04-12T07:36:08.348Z,5.37
2023-04-12T07:38:36.159Z,9.45
2023-04-12T07:41:03.630Z,6.28
2023-04-12T07:43:31.133Z,8.50
2023-04-12T07:45:59.145Z,5.37
2023-04-12T07:48:26.690Z,9.10
2023-04-12T07:50:54.144Z,6.20
2023-04-12T07:53:26.203Z,7.47
2023-04-12T07:55:54.618Z,6.00
2023-04-12T07:58:22.953Z,6.95
2023-04-12T08:00:50.562Z,7.32
2023-04-12T08:03:18.519Z,6.10
2023-04-12T08:05:47.243Z,10.43
2023-04-12T08:08:15.492Z,8.98
2023-04-12T08:10:43.220Z,7.37
2023-04-12T08:13:10.625Z,5.70
2023-04-12T08:15:38.006Z,6.68
2023-04-12T08:18:05.838Z,5.03
2023-04-12T08:20:33.330Z,5.28
2023-04-12T08:23:01.393Z,7.03
2023-04-12T08:25:29.029Z,6.97
2023-04-12T08:27:56.432Z,5.72
2023-04-12T08:30:26.879Z,7.25
2023-04-12T08:32:54.742Z,5.45
2023-04-12T08:35:24.998Z,7.80
2023-04-12T08:37:52.357Z,6.12
2023-04-12T08:40:21.843Z,6.80
2023-04-12T08:42:49.542Z,6.28
2023-04-12T08:45:17.302Z,6.82
2023-04-12T08:47:45.058Z,9.75
2023-04-12T08:50:13.807Z,10.10
2023-04-12T08:52:42.707Z,6.65
2023-04-12T08:55:11.171Z,7.80
2023-04-12T08:57:41.118Z,9.88
2023-04-12T09:00:09.495Z,8.45
2023-04-12T09:02:38.045Z,6.10
2023-04-12T09:05:06.761Z,7.47
2023-04-12T09:07:34.709Z,7.18
2023-04-12T09:10:02.442Z,7.53
2023-04-12T09:12:29.851Z,9.05
2023-04-12T09:15:08.479Z,8.07
2023-04-12T09:17:39.130Z,8.07
2023-04-12T09:20:23.789Z,8.50
2023-04-12T09:22:52.860Z,9.57
2023-04-12T09:25:20.598Z,9.05
2023-04-12T09:27:51.981Z,9.10
2023-04-12T09:30:20.284Z,9.25
2023-04-12T09:32:50.773Z,9.13
2023-04-12T09:35:18.779Z,9.07
2023-04-12T09:37:46.558Z,9.52
2023-04-12T09:40:14.189Z,10.25
2023-04-12T09:42:53.848Z,9.43
2023-04-12T09:45:22.846Z,9.43
2023-04-12T09:47:50.409Z,8.32
2023-04-12T09:50:22.878Z,9.73
2023-04-12T09:52:50.753Z,9.55
2023-04-12T09:55:18.314Z,9.43
2023-04-12T09:57:46.370Z,9.50
2023-04-12T10:00:17.705Z,9.40
2023-04-12T10:02:51.964Z,10.25
2023-04-12T10:05:21.734Z,9.95
2023-04-12T10:07:49.892Z,9.40
2023-04-12T10:10:18.297Z,10.23
2023-04-12T10:12:47.034Z,8.65
2023-04-12T10:15:18.230Z,8.68
2023-04-12T10:17:50.835Z,8.13
2023-04-12T10:20:19.598Z,10.52
2023-04-12T10:22:48.099Z,9.35
2023-04-12T10:25:22.722Z,11.07
2023-04-12T10:27:50.595Z,8.75
2023-04-12T10:30:22.399Z,9.02
2023-04-12T10:33:02.251Z,9.00
2023-04-12T10:35:30.498Z,8.32
2023-04-12T10:38:01.292Z,7.97
2023-04-12T10:40:29.487Z,8.65
2023-04-12T10:43:24.760Z,8.77
2023-04-12T10:45:52.461Z,9.25
2023-04-12T10:48:36.681Z,9.30
2023-04-12T10:51:43.446Z,9.52
2023-04-12T10:54:10.849Z,9.63
2023-04-12T10:56:39.754Z,10.65
2023-04-12T10:59:08.547Z,9.27
2023-04-12T11:01:39.256Z,10.05
2023-04-12T11:04:13.839Z,9.52
2023-04-12T11:06:42.400Z,9.25
2023-04-12T11:09:22.267Z,9.90
2023-04-12T11:11:49.998Z,9.68
2023-04-12T11:14:17.756Z,9.43
2023-04-12T11:17:06.847Z,9.52
2023-04-12T11:19:34.789Z,8.95
2023-04-12T11:22:22.351Z,9.15
2023-04-12T11:24:52.243Z,8.98
2023-04-12T11:27:20.783Z,9.05
2023-04-12T11:29:52.771Z,9.43
2023-04-12T11:32:21.315Z,9.15
2023-04-12T11:34:48.817Z,9.57
2023-04-12T11:37:18.564Z,9.02
2023-04-12T11:39:46.399Z,10.00
2023-04-12T11:42:18.267Z,9.75
2023-04-12T11:47:21.400Z,10.70
2023-04-12T11:49:52.790Z,10.60
2023-04-12T11:52:20.563Z,11.68
2023-04-12T11:54:49.474Z,10.70
2023-04-12T11:57:20.344Z,11.05
2023-04-12T11:59:48.696Z,10.10
2023-04-12T12:02:23.241Z,10.63
2023-04-12T12:04:52.466Z,9.88
2023-04-12T12:07:20.167Z,10.05
2023-04-12T12:09:48.129Z,9.60
2023-04-12T12:12:16.179Z,9.23
2023-04-12T12:14:44.419Z,10.05
2023-04-12T12:17:13.458Z,8.57
2023-04-12T12:19:43.461Z,11.73
2023-04-12T12:22:17.466Z,10.30
2023-04-12T12:25:01.202Z,9.85
2023-04-12T12:27:37.396Z,10.10
2023-04-12T12:30:07.417Z,10.00
2023-04-12T12:32:35.525Z,10.20
2023-04-12T12:35:03.547Z,9.50
2023-04-12T12:37:31.352Z,8.88
2023-04-12T12:40:11.711Z,9.43
2023-04-12T12:42:46.359Z,9.95
2023-04-12T12:45:14.085Z,9.20
2023-04-12T12:47:54.803Z,9.70
2023-04-12T12:50:26.601Z,9.20
2023-04-12T12:52:54.669Z,8.80
2023-04-12T12:55:22.444Z,9.27
2023-04-12T12:58:06.563Z,10.18
2023-04-12T13:00:36.574Z,9.57
2023-04-12T13:03:04.459Z,10.15
2023-04-12T13:05:32.271Z,10.35
2023-04-12T13:07:59.898Z,9.93
2023-04-12T13:10:27.517Z,11.00
2023-04-12T13:12:54.870Z,11.38
2023-04-12T13:15:24.126Z,10.25
2023-04-12T13:17:52.605Z,10.27
2023-04-12T13:20:20.281Z,10.52
2023-04-12T13:22:47.935Z,9.52
2023-04-12T13:25:15.545Z,10.25
2023-04-12T13:27:42.896Z,10.10
2023-04-12T13:30:11.077Z,10.35
2023-04-12T13:32:38.482Z,10.07
2023-04-12T13:35:06.545Z,11.12
2023-04-12T13:37:34.315Z,9.93
2023-04-12T13:40:01.668Z,10.15
2023-04-12T13:42:29.063Z,10.45
2023-04-12T13:44:56.994Z,10.18
2023-04-12T13:47:24.379Z,9.95
2023-04-12T13:49:51.784Z,10.95
2023-04-12T13:52:19.390Z,10.10
2023-04-12T13:54:46.738Z,9.85
2023-04-12T13:57:14.078Z,10.07
2023-04-12T13:59:41.790Z,9.85
2023-04-12T14:02:09.268Z,9.00
2023-04-12T14:04:37.107Z,9.43
2023-04-12T14:07:04.427Z,9.85
2023-04-12T14:09:32.097Z,10.13
2023-04-12T14:12:01.477Z,9.73
2023-04-12T14:14:28.904Z,10.15
2023-04-12T14:17:01.846Z,9.55
2023-04-12T14:19:29.681Z,9.38
2023-04-12T14:21:57.010Z,10.00
2023-04-12T14:24:24.404Z,10.70
2023-04-12T14:26:52.003Z,9.30
2023-04-12T14:29:19.339Z,9.05
2023-04-12T14:31:46.867Z,8.88
2023-04-12T14:34:14.531Z,9.43
2023-04-12T14:36:41.912Z,9.00
2023-04-12T14:39:11.655Z,9.27
2023-04-12T14:41:40.665Z,9.73
2023-04-12T14:44:08.015Z,9.57
2023-04-12T14:46:35.683Z,9.35
2023-04-12T14:49:03.371Z,9.23
2023-04-12T14:51:32.079Z,8.75
2023-04-12T14:53:59.680Z,9.98
2023-04-12T14:56:30.433Z,9.10
2023-04-12T14:58:58.788Z,10.35
2023-04-12T15:01:27.131Z,9.10
2023-04-12T15:03:54.937Z,9.18
2023-04-12T15:06:22.956Z,8.73
2023-04-12T15:08:54.981Z,9.63
2023-04-12T15:11:26.596Z,9.73
2023-04-12T15:13:55.094Z,8.75
2023-04-12T15:16:23.388Z,8.63
2023-04-12T15:18:51.316Z,10.05
2023-04-12T15:21:18.770Z,10.15
2023-04-12T15:23:47.246Z,9.68
2023-04-12T15:26:14.704Z,8.77
2023-04-12T15:28:42.302Z,8.95
2023-04-12T15:31:11.813Z,9.13
2023-04-12T15:33:39.297Z,9.35
2023-04-12T15:36:06.975Z,9.68
2023-04-12T15:38:40.809Z,9.73
2023-04-12T15:41:08.183Z,9.13
2023-04-12T15:43:35.925Z,8.98
2023-04-12T15:46:03.488Z,9.35
2023-04-12T15:48:30.979Z,9.88
2023-04-12T15:50:59.051Z,10.57
2023-04-12T15:53:27.292Z,11.88
2023-04-12T15:55:55.122Z,11.20
2023-04-12T15:58:23.461Z,10.10
2023-04-12T16:00:52.897Z,10.32
2023-04-12T16:03:23.314Z,10.98
2023-04-12T16:05:54.361Z,9.63
2023-04-12T16:08:22.658Z,10.25
2023-04-12T16:10:50.606Z,11.20
2023-04-12T16:13:18.410Z,10.32
2023-04-12T16:15:46.873Z,10.27
2023-04-12T16:18:14.348Z,14.52
2023-04-12T16:20:41.835Z,11.52
2023-04-12T16:23:09.510Z,11.30
2023-04-12T16:25:36.878Z,10.02
2023-04-12T16:28:05.188Z,12.25
2023-04-12T16:30:33.836Z,12.57
2023-04-12T16:33:01.350Z,9.85
2023-04-12T16:35:28.861Z,10.50
2023-04-12T16:37:56.502Z,10.70
2023-04-12T16:40:24.554Z,10.25
2023-04-12T16:42:52.029Z,11.20
2023-04-12T16:45:20.860Z,10.25
2023-04-12T16:47:48.285Z,10.95
2023-04-12T16:50:15.678Z,10.27
2023-04-12T16:52:43.298Z,10.50
2023-04-12T16:55:14.164Z,11.68
2023-04-12T16:57:42.016Z,9.80
2023-04-12T17:00:28.963Z,10.95
2023-04-12T17:02:56.561Z,9.98
2023-04-12T17:05:24.789Z,11.85
2023-04-12T17:07:53.998Z,9.35
2023-04-12T17:10:22.466Z,10.02
2023-04-12T17:12:51.911Z,11.15
2023-04-12T17:15:20.991Z,10.95
2023-04-12T17:17:49.948Z,10.93
2023-04-12T17:20:19.209Z,10.88
2023-04-12T17:22:47.014Z,10.73
2023-04-12T17:25:14.369Z,8.80
2023-04-12T17:27:42.465Z,9.65
2023-04-12T17:30:12.425Z,11.68
2023-04-12T17:32:40.356Z,13.45
2023-04-12T17:35:08.405Z,13.70
2023-04-12T17:37:35.934Z,15.10
2023-04-12T17:40:06.168Z,11.93
2023-04-12T17:42:33.820Z,12.13
2023-04-12T17:45:01.164Z,12.32
2023-04-12T17:47:28.553Z,13.95
2023-04-12T17:49:56.451Z,11.25
2023-04-12T17:52:23.823Z,15.82
2023-04-12T17:54:51.776Z,13.85
2023-04-12T17:57:19.412Z,13.32
2023-04-12T17:59:47.199Z,13.30
2023-04-12T18:02:16.954Z,11.30
2023-04-12T18:04:45.213Z,15.15
2023-04-12T18:07:12.892Z,15.77
2023-04-12T18:09:44.711Z,14.93
2023-04-12T18:12:13.060Z,14.73
2023-04-12T18:14:43.837Z,15.05
2023-04-12T18:17:11.190Z,12.95
2023-04-12T18:19:38.831Z,14.40
2023-04-12T18:22:06.229Z,15.02
2023-04-12T18:24:33.929Z,14.82
2023-04-12T18:27:04.277Z,12.23
2023-04-12T18:29:32.782Z,16.12
2023-04-12T18:32:00.289Z,16.08
2023-04-12T18:34:28.181Z,18.02
2023-04-12T18:36:55.738Z,15.43
2023-04-12T18:39:23.078Z,15.50
2023-04-12T18:41:51.295Z,23.42
2023-04-12T18:44:19.865Z,13.40
2023-04-12T18:46:47.288Z,14.55
2023-04-12T18:49:15.405Z,11.98
2023-04-12T18:51:42.903Z,11.88
2023-04-12T18:54:13.722Z,11.00
2023-04-12T18:56:42.397Z,9.32
2023-04-12T18:59:15.878Z,11.18
2023-04-12T19:01:44.393Z,12.20
2023-04-12T19:04:11.898Z,11.07
2023-04-12T19:06:39.421Z,10.00
2023-04-12T19:09:08.262Z,17.05
2023-04-12T19:11:37.108Z,16.62
2023-04-12T19:14:05.170Z,12.70
2023-04-12T19:16:32.838Z,14.55
2023-04-12T19:19:00.435Z,12.37
2023-04-12T19:21:31.601Z,12.88
2023-04-12T19:23:59.661Z,9.63
2023-04-12T19:26:28.189Z,13.95
2023-04-12T19:28:58.245Z,13.23
2023-04-12T19:31:26.207Z,13.48
2023-04-12T19:33:57.261Z,14.43
2023-04-12T19:36:25.002Z,13.95
2023-04-12T19:38:52.620Z,12.88
2023-04-12T19:41:20.793Z,12.02
2023-04-12T19:43:48.258Z,10.82
2023-04-12T19:46:17.351Z,10.48
2023-04-12T19:48:45.440Z,11.60
2023-04-12T19:51:13.334Z,10.00
2023-04-12T19:53:41.923Z,10.88
2023-04-12T19:56:09.748Z,14.77
2023-04-12T19:58:37.314Z,11.23
2023-04-12T20:01:05.129Z,11.18
2023-04-12T20:03:32.914Z,12.80
2023-04-12T20:06:03.921Z,15.95
2023-04-12T20:08:32.180Z,15.18
2023-04-12T20:11:01.013Z,13.52
2023-04-12T20:13:30.667Z,13.95
2023-04-12T20:16:00.694Z,15.15
2023-04-12T20:18:29.582Z,17.55
2023-04-12T20:20:59.907Z,16.60
2023-04-12T20:23:28.091Z,15.07
2023-04-12T20:25:55.611Z,15.07
2023-04-12T20:28:23.440Z,17.90
2023-04-12T20:30:51.171Z,12.32
2023-04-12T20:33:19.897Z,15.32
2023-04-12T20:35:47.312Z,13.68
2023-04-12T20:38:15.167Z,12.20
2023-04-12T20:40:42.509Z,11.43
2023-04-12T20:43:10.507Z,15.35
2023-04-12T20:45:38.214Z,17.98
2023-04-12T20:48:05.778Z,15.88
2023-04-12T20:50:33.193Z,15.48
2023-04-12T20:53:00.781Z,16.42
2023-04-12T20:55:32.523Z,16.62
2023-04-12T20:58:00.775Z,16.35
2023-04-12T21:00:29.592Z,13.18
2023-04-12T21:02:58.285Z,17.08
2023-04-12T21:05:27.280Z,15.13
2023-04-12T21:07:54.917Z,13.80
2023-04-12T21:10:22.304Z,12.37
2023-04-12T21:12:50.080Z,15.07
2023-04-12T21:15:21.963Z,14.23
2023-04-12T21:17:52.275Z,15.25
2023-04-12T21:20:19.997Z,15.40
2023-04-12T21:22:48.132Z,11.52
2023-04-12T21:25:16.990Z,15.02
2023-04-12T21:27:45.704Z,18.30
2023-04-12T21:30:13.643Z,12.27
2023-04-12T21:32:41.956Z,12.82
2023-04-12T21:35:11.054Z,12.10
2023-04-12T21:37:39.158Z,13.00
2023-04-12T21:40:09.246Z,14.85
2023-04-12T21:42:37.070Z,14.23
2023-04-12T21:45:05.332Z,14.35
2023-04-12T21:47:32.801Z,13.20
2023-04-12T21:50:00.690Z,13.65
2023-04-12T21:52:28.055Z,18.27
2023-04-12T21:54:55.782Z,14.65
2023-04-12T21:57:23.413Z,14.63
2023-04-12T21:59:51.008Z,12.48
2023-04-12T22:02:18.461Z,17.60
2023-04-12T22:04:46.713Z,15.63
2023-04-12T22:07:16.842Z,16.75
2023-04-12T22:09:45.009Z,17.60
2023-04-12T22:12:12.865Z,17.75
2023-04-12T22:14:46.412Z,17.30
2023-04-12T22:17:14.736Z,15.55
2023-04-12T22:19:42.308Z,21.48
2023-04-12T22:22:09.794Z,25.50
2023-04-12T22:24:38.663Z,27.10
2023-04-12T22:27:06.930Z,33.15
2023-04-12T22:29:34.374Z,38.80
2023-04-12T22:32:02.406Z,34.90
2023-04-12T22:34:29.792Z,32.63
2023-04-12T22:36:59.969Z,33.20
2023-04-12T22:39:27.681Z,31.30
2023-04-12T22:41:57.353Z,23.77
2023-04-12T22:44:25.416Z,17.00
2023-04-12T22:46:54.584Z,18.92
2023-04-12T22:49:27.241Z,22.33
2023-04-12T22:51:55.298Z,23.55
2023-04-12T22:54:23.594Z,25.40
2023-04-12T22:56:51.599Z,26.58
2023-04-12T22:59:20.004Z,27.87
2023-04-12T23:01:47.525Z,22.33
2023-04-12T23:04:15.766Z,24.27
2023-04-12T23:06:43.702Z,33.45
2023-04-12T23:09:11.748Z,24.83
2023-04-12T23:11:39.966Z,20.65
2023-04-12T23:14:08.028Z,21.08
2023-04-12T23:16:35.658Z,19.25
2023-04-12T23:19:06.366Z,22.37
2023-04-12T23:21:36.035Z,24.23
2023-04-12T23:24:04.380Z,21.77
2023-04-12T23:26:34.520Z,18.52
2023-04-12T23:29:03.894Z,20.40
2023-04-12T23:31:32.268Z,30.80
2023-04-12T23:34:03.085Z,21.95
2023-04-12T23:36:30.736Z,26.35
2023-04-12T23:39:04.527Z,24.25
2023-04-12T23:41:32.324Z,25.08
2023-04-12T23:44:00.280Z,18.25
2023-04-12T23:46:28.133Z,17.42
2023-04-12T23:48:56.132Z,20.58
2023-04-12T23:51:23.516Z,24.02
2023-04-12T23:53:51.052Z,21.08
2023-04-12T23:56:18.751Z,28.80
2023-04-12T23:58:47.111Z,22.08
